createdAt,value
2018-09-17T00:00:39.694Z,1004.75
2018-09-17T00:01:39.689Z,1004.77
2018-09-17T00:02:39.687Z,1004.77
2018-09-17T00:03:40.004Z,1004.74
2018-09-17T00:04:39.681Z,1004.74
2018-09-17T00:05:39.679Z,1004.72
2018-09-17T00:06:39.676Z,1004.70
2018-09-17T00:07:39.680Z,1004.70
2018-09-17T00:08:39.670Z,1004.71
2018-09-17T00:09:39.668Z,1004.72
2018-09-17T00:10:39.669Z,1004.71
2018-09-17T00:11:39.665Z,1004.75
2018-09-17T00:12:39.659Z,1004.78
2018-09-17T00:13:39.657Z,1004.80
2018-09-17T00:14:39.658Z,1004.78
2018-09-17T00:15:39.652Z,1004.74
2018-09-17T00:16:39.648Z,1004.78
2018-09-17T00:17:39.651Z,1004.77
2018-09-17T00:18:39.646Z,1004.77
2018-09-17T00:19:39.643Z,1004.75
2018-09-17T00:20:39.636Z,1004.73
2018-09-17T00:21:39.636Z,1004.74
2018-09-17T00:22:39.634Z,1004.71
2018-09-17T00:23:39.630Z,1004.73
2018-09-17T00:24:39.626Z,1004.72
2018-09-17T00:25:39.626Z,1004.72
2018-09-17T00:26:39.621Z,1004.73
2018-09-17T00:27:39.618Z,1004.73
2018-09-17T00:28:39.614Z,1004.74
2018-09-17T00:29:39.619Z,1004.79
2018-09-17T00:30:39.610Z,1004.79
2018-09-17T00:31:39.606Z,1004.77
2018-09-17T00:32:39.606Z,1004.77
2018-09-17T00:33:39.601Z,1004.82
2018-09-17T00:34:40.377Z,1004.79
2018-09-17T00:35:39.596Z,1004.78
2018-09-17T00:36:39.591Z,1004.77
2018-09-17T00:37:39.592Z,1004.75
2018-09-17T00:38:39.586Z,1004.75
2018-09-17T00:39:39.583Z,1004.76
2018-09-17T00:40:39.580Z,1004.73
2018-09-17T00:41:39.578Z,1004.76
2018-09-17T00:42:39.581Z,1004.78
2018-09-17T00:43:39.571Z,1004.77
2018-09-17T00:44:39.567Z,1004.79
2018-09-17T00:45:39.564Z,1004.75
2018-09-17T00:46:39.562Z,1004.77
2018-09-17T00:47:39.560Z,1004.74
2018-09-17T00:48:39.557Z,1004.75
2018-09-17T00:49:39.552Z,1004.73
2018-09-17T00:50:39.551Z,1004.72
2018-09-17T00:51:39.548Z,1004.72
2018-09-17T00:52:39.549Z,1004.72
2018-09-17T00:53:39.542Z,1004.74
2018-09-17T00:54:39.539Z,1004.74
2018-09-17T00:55:39.536Z,1004.71
2018-09-17T00:56:39.532Z,1004.68
2018-09-17T00:57:39.584Z,1004.71
2018-09-17T00:58:39.525Z,1004.67
2018-09-17T00:59:39.529Z,1004.67
2018-09-17T01:00:39.520Z,1004.69
2018-09-17T01:01:39.516Z,1004.66
2018-09-17T01:02:39.513Z,1004.65
2018-09-17T01:03:39.581Z,1004.66
2018-09-17T01:04:39.553Z,1004.67
2018-09-17T01:05:39.506Z,1004.70
2018-09-17T01:06:39.500Z,1004.71
2018-09-17T01:07:39.497Z,1004.73
2018-09-17T01:08:39.494Z,1004.74
2018-09-17T01:09:39.491Z,1004.76
2018-09-17T01:10:39.488Z,1004.77
2018-09-17T01:11:39.489Z,1004.75
2018-09-17T01:12:39.481Z,1004.78
2018-09-17T01:13:39.482Z,1004.77
2018-09-17T01:14:39.489Z,1004.79
2018-09-17T01:15:39.473Z,1004.79
2018-09-17T01:16:39.469Z,1004.78
2018-09-17T01:17:39.468Z,1004.79
2018-09-17T01:18:39.462Z,1004.78
2018-09-17T01:19:39.460Z,1004.79
2018-09-17T01:20:39.456Z,1004.80
2018-09-17T01:21:39.453Z,1004.82
2018-09-17T01:22:39.450Z,1004.83
2018-09-17T01:23:39.448Z,1004.85
2018-09-17T01:24:39.443Z,1004.82
2018-09-17T01:25:39.440Z,1004.85
2018-09-17T01:26:39.437Z,1004.92
2018-09-17T01:27:39.435Z,1004.85
2018-09-17T01:28:39.432Z,1004.90
2018-09-17T01:29:39.427Z,1004.88
2018-09-17T01:30:39.484Z,1004.90
2018-09-17T01:31:39.468Z,1004.89
2018-09-17T01:32:39.418Z,1004.91
2018-09-17T01:33:39.422Z,1004.90
2018-09-17T01:34:39.420Z,1004.91
2018-09-17T01:35:39.410Z,1004.92
2018-09-17T01:36:39.407Z,1004.90
2018-09-17T01:37:39.406Z,1004.91
2018-09-17T01:38:39.400Z,1004.88
2018-09-17T01:39:39.397Z,1004.88
2018-09-17T01:40:39.393Z,1004.93
2018-09-17T01:41:39.397Z,1004.90
2018-09-17T01:42:39.387Z,1004.90
2018-09-17T01:43:39.386Z,1004.93
2018-09-17T01:44:39.381Z,1004.87
2018-09-17T01:45:39.377Z,1004.94
2018-09-17T01:46:39.374Z,1004.90
2018-09-17T01:47:39.372Z,1004.92
2018-09-17T01:48:39.370Z,1004.92
2018-09-17T01:49:39.365Z,1004.92
2018-09-17T01:50:39.362Z,1004.89
2018-09-17T01:51:39.359Z,1004.89
2018-09-17T01:52:39.355Z,1004.90
2018-09-17T01:53:39.353Z,1004.90
2018-09-17T01:54:39.350Z,1004.87
2018-09-17T01:55:39.347Z,1004.90
2018-09-17T01:56:39.343Z,1004.87
2018-09-17T01:57:39.340Z,1004.83
2018-09-17T01:58:39.337Z,1004.86
2018-09-17T01:59:39.337Z,1004.86
2018-09-17T02:00:39.330Z,1004.90
2018-09-17T02:01:39.328Z,1004.91
2018-09-17T02:02:39.331Z,1004.88
2018-09-17T02:03:39.322Z,1004.88
2018-09-17T02:04:39.316Z,1004.88
2018-09-17T02:05:39.338Z,1004.87
2018-09-17T02:06:39.511Z,1004.89
2018-09-17T02:07:39.308Z,1004.90
2018-09-17T02:08:39.383Z,1004.88
2018-09-17T02:09:39.304Z,1004.86
2018-09-17T02:10:39.299Z,1004.87
2018-09-17T02:11:39.335Z,1004.86
2018-09-17T02:12:39.298Z,1004.88
2018-09-17T02:13:39.290Z,1004.88
2018-09-17T02:14:39.298Z,1004.84
2018-09-17T02:15:39.283Z,1004.83
2018-09-17T02:16:39.281Z,1004.78
2018-09-17T02:17:39.278Z,1004.77
2018-09-17T02:18:39.272Z,1004.79
2018-09-17T02:19:39.270Z,1004.79
2018-09-17T02:20:39.266Z,1004.78
2018-09-17T02:21:39.263Z,1004.80
2018-09-17T02:22:39.262Z,1004.79
2018-09-17T02:23:39.257Z,1004.79
2018-09-17T02:24:39.253Z,1004.81
2018-09-17T02:25:39.250Z,1004.81
2018-09-17T02:26:39.247Z,1004.86
2018-09-17T02:27:39.246Z,1004.83
2018-09-17T02:28:39.240Z,1004.85
2018-09-17T02:29:39.237Z,1004.88
2018-09-17T02:30:39.257Z,1004.85
2018-09-17T02:31:39.231Z,1004.87
2018-09-17T02:32:39.227Z,1004.89
2018-09-17T02:33:39.231Z,1004.91
2018-09-17T02:34:39.221Z,1004.90
2018-09-17T02:35:39.219Z,1004.90
2018-09-17T02:36:39.219Z,1004.89
2018-09-17T02:37:39.914Z,1004.91
2018-09-17T02:38:39.209Z,1004.92
2018-09-17T02:39:39.204Z,1004.91
2018-09-17T02:40:39.200Z,1004.91
2018-09-17T02:41:39.198Z,1004.91
2018-09-17T02:42:39.194Z,1004.91
2018-09-17T02:43:39.191Z,1004.90
2018-09-17T02:44:39.187Z,1004.90
2018-09-17T02:45:39.185Z,1004.91
2018-09-17T02:46:39.185Z,1004.89
2018-09-17T02:47:39.177Z,1004.89
2018-09-17T02:48:39.173Z,1004.89
2018-09-17T02:49:39.172Z,1004.90
2018-09-17T02:50:39.169Z,1004.91
2018-09-17T02:51:39.163Z,1004.91
2018-09-17T02:52:39.159Z,1004.90
2018-09-17T02:53:39.245Z,1004.94
2018-09-17T02:54:39.155Z,1004.90
2018-09-17T02:55:39.151Z,1004.95
2018-09-17T02:56:39.145Z,1004.96
2018-09-17T02:57:39.142Z,1004.93
2018-09-17T02:58:39.140Z,1004.91
2018-09-17T02:59:39.139Z,1004.92
2018-09-17T03:00:39.132Z,1004.90
2018-09-17T03:01:39.128Z,1004.92
2018-09-17T03:02:39.126Z,1004.93
2018-09-17T03:03:39.148Z,1004.96
2018-09-17T03:04:39.120Z,1004.94
2018-09-17T03:05:39.115Z,1004.96
2018-09-17T03:06:39.119Z,1004.98
2018-09-17T03:07:39.110Z,1004.99
2018-09-17T03:08:39.107Z,1004.92
2018-09-17T03:09:39.101Z,1004.97
2018-09-17T03:10:39.104Z,1004.96
2018-09-17T03:11:39.096Z,1004.92
2018-09-17T03:12:39.090Z,1004.94
2018-09-17T03:13:39.090Z,1004.91
2018-09-17T03:14:39.088Z,1004.92
2018-09-17T03:15:39.081Z,1004.95
2018-09-17T03:16:39.077Z,1004.95
2018-09-17T03:17:39.075Z,1004.91
2018-09-17T03:18:39.079Z,1004.90
2018-09-17T03:19:39.072Z,1004.94
2018-09-17T03:20:39.073Z,1004.89
2018-09-17T03:21:39.061Z,1004.88
2018-09-17T03:22:39.057Z,1004.88
2018-09-17T03:23:39.054Z,1004.92
2018-09-17T03:24:39.116Z,1004.91
2018-09-17T03:25:39.046Z,1004.89
2018-09-17T03:26:39.042Z,1004.93
2018-09-17T03:27:39.040Z,1004.94
2018-09-17T03:28:39.034Z,1004.97
2018-09-17T03:29:39.038Z,1004.98
2018-09-17T03:30:39.028Z,1004.96
2018-09-17T03:31:39.025Z,1004.99
2018-09-17T03:32:39.021Z,1004.97
2018-09-17T03:33:39.025Z,1004.97
2018-09-17T03:34:39.021Z,1004.97
2018-09-17T03:35:39.011Z,1004.97
2018-09-17T03:36:39.006Z,1004.98
2018-09-17T03:37:39.001Z,1004.98
2018-09-17T03:38:39.000Z,1005.04
2018-09-17T03:39:38.996Z,1005.07
2018-09-17T03:40:38.992Z,1005.04
2018-09-17T03:41:38.987Z,1005.04
2018-09-17T03:42:38.983Z,1005.02
2018-09-17T03:43:38.978Z,1005.02
2018-09-17T03:44:38.977Z,1005.07
2018-09-17T03:45:38.973Z,1005.04
2018-09-17T03:46:38.991Z,1005.05
2018-09-17T03:47:38.963Z,1005.03
2018-09-17T03:48:38.960Z,1005.05
2018-09-17T03:49:38.960Z,1005.08
2018-09-17T03:50:38.952Z,1005.06
2018-09-17T03:51:38.949Z,1005.04
2018-09-17T03:52:38.945Z,1005.03
2018-09-17T03:53:38.942Z,1005.03
2018-09-17T03:54:38.936Z,1005.01
2018-09-17T03:55:38.934Z,1004.98
2018-09-17T03:56:38.931Z,1004.98
2018-09-17T03:57:38.925Z,1004.99
2018-09-17T03:58:38.923Z,1004.94
2018-09-17T03:59:38.927Z,1004.93
2018-09-17T04:00:38.912Z,1004.92
2018-09-17T04:01:38.908Z,1004.95
2018-09-17T04:02:38.909Z,1004.89
2018-09-17T04:03:38.904Z,1004.91
2018-09-17T04:04:38.900Z,1004.89
2018-09-17T04:05:38.895Z,1004.90
2018-09-17T04:06:38.892Z,1004.94
2018-09-17T04:07:38.888Z,1004.95
2018-09-17T04:08:38.883Z,1004.94
2018-09-17T04:09:39.076Z,1004.92
2018-09-17T04:10:38.873Z,1004.93
2018-09-17T04:11:38.871Z,1004.91
2018-09-17T04:12:38.866Z,1004.92
2018-09-17T04:13:38.862Z,1004.85
2018-09-17T04:14:38.857Z,1004.83
2018-09-17T04:15:38.856Z,1004.83
2018-09-17T04:16:38.855Z,1004.80
2018-09-17T04:17:38.848Z,1004.79
2018-09-17T04:18:38.850Z,1004.80
2018-09-17T04:19:38.842Z,1004.81
2018-09-17T04:20:38.837Z,1004.83
2018-09-17T04:21:38.835Z,1004.86
2018-09-17T04:22:38.829Z,1004.84
2018-09-17T04:23:38.827Z,1004.87
2018-09-17T04:24:38.820Z,1004.85
2018-09-17T04:25:38.816Z,1004.88
2018-09-17T04:26:38.811Z,1004.84
2018-09-17T04:27:38.807Z,1004.87
2018-09-17T04:28:38.804Z,1004.82
2018-09-17T04:29:38.803Z,1004.90
2018-09-17T04:30:38.798Z,1004.88
2018-09-17T04:31:38.801Z,1004.91
2018-09-17T04:32:38.790Z,1004.90
2018-09-17T04:33:38.785Z,1004.93
2018-09-17T04:34:38.782Z,1004.91
2018-09-17T04:35:38.778Z,1004.90
2018-09-17T04:36:38.774Z,1004.86
2018-09-17T04:37:38.774Z,1004.87
2018-09-17T04:38:38.766Z,1004.85
2018-09-17T04:39:38.772Z,1004.82
2018-09-17T04:40:39.451Z,1004.80
2018-09-17T04:41:38.761Z,1004.79
2018-09-17T04:42:38.752Z,1004.81
2018-09-17T04:43:38.748Z,1004.77
2018-09-17T04:44:38.743Z,1004.81
2018-09-17T04:45:38.742Z,1004.80
2018-09-17T04:46:38.736Z,1004.77
2018-09-17T04:47:38.734Z,1004.82
2018-09-17T04:48:38.728Z,1004.81
2018-09-17T04:49:38.726Z,1004.80
2018-09-17T04:50:38.721Z,1004.78
2018-09-17T04:51:38.721Z,1004.82
2018-09-17T04:52:38.714Z,1004.75
2018-09-17T04:53:38.710Z,1004.79
2018-09-17T04:54:38.707Z,1004.79
2018-09-17T04:55:38.703Z,1004.83
2018-09-17T04:56:38.700Z,1004.83
2018-09-17T04:57:38.696Z,1004.86
2018-09-17T04:58:38.691Z,1004.91
2018-09-17T04:59:38.692Z,1004.92
2018-09-17T05:00:38.685Z,1004.91
2018-09-17T05:01:38.687Z,1004.95
2018-09-17T05:02:38.677Z,1004.95
2018-09-17T05:03:38.675Z,1004.95
2018-09-17T05:04:38.669Z,1004.97
2018-09-17T05:05:38.669Z,1005.03
2018-09-17T05:06:38.662Z,1004.99
2018-09-17T05:07:38.660Z,1005.02
2018-09-17T05:08:38.654Z,1005.03
2018-09-17T05:09:38.651Z,1005.03
2018-09-17T05:10:38.649Z,1005.08
2018-09-17T05:11:38.647Z,1005.09
2018-09-17T05:12:38.640Z,1005.09
2018-09-17T05:13:38.638Z,1005.15
2018-09-17T05:14:38.633Z,1005.12
2018-09-17T05:15:38.631Z,1005.14
2018-09-17T05:16:38.624Z,1005.15
2018-09-17T05:17:38.620Z,1005.13
2018-09-17T05:18:38.619Z,1005.13
2018-09-17T05:19:38.617Z,1005.16
2018-09-17T05:20:38.641Z,1005.14
2018-09-17T05:21:38.608Z,1005.15
2018-09-17T05:22:38.605Z,1005.16
2018-09-17T05:23:38.601Z,1005.14
2018-09-17T05:24:38.597Z,1005.19
2018-09-17T05:25:38.598Z,1005.18
2018-09-17T05:26:38.607Z,1005.21
2018-09-17T05:27:38.585Z,1005.20
2018-09-17T05:28:38.584Z,1005.22
2018-09-17T05:29:38.577Z,1005.24
2018-09-17T05:30:38.575Z,1005.27
2018-09-17T05:31:38.569Z,1005.26
2018-09-17T05:32:38.570Z,1005.27
2018-09-17T05:33:38.563Z,1005.26
2018-09-17T05:34:38.559Z,1005.28
2018-09-17T05:35:38.556Z,1005.25
2018-09-17T05:36:38.550Z,1005.28
2018-09-17T05:37:38.547Z,1005.28
2018-09-17T05:38:38.551Z,1005.28
2018-09-17T05:39:38.546Z,1005.24
2018-09-17T05:40:38.548Z,1005.30
2018-09-17T05:41:38.537Z,1005.26
2018-09-17T05:42:38.530Z,1005.26
2018-09-17T05:43:38.582Z,1005.24
2018-09-17T05:44:38.523Z,1005.26
2018-09-17T05:45:38.543Z,1005.25
2018-09-17T05:46:38.514Z,1005.28
2018-09-17T05:47:38.536Z,1005.26
2018-09-17T05:48:38.513Z,1005.29
2018-09-17T05:49:38.506Z,1005.30
2018-09-17T05:50:38.500Z,1005.29
2018-09-17T05:51:38.498Z,1005.31
2018-09-17T05:52:38.492Z,1005.30
2018-09-17T05:53:38.525Z,1005.34
2018-09-17T05:54:38.486Z,1005.34
2018-09-17T05:55:38.482Z,1005.32
2018-09-17T05:56:38.484Z,1005.30
2018-09-17T05:57:38.476Z,1005.28
2018-09-17T05:58:38.470Z,1005.28
2018-09-17T05:59:38.515Z,1005.28
2018-09-17T06:00:38.463Z,1005.27
2018-09-17T06:01:38.480Z,1005.25
2018-09-17T06:02:38.488Z,1005.27
2018-09-17T06:03:38.454Z,1005.24
2018-09-17T06:04:38.448Z,1005.26
2018-09-17T06:05:38.515Z,1005.19
2018-09-17T06:06:38.441Z,1005.22
2018-09-17T06:07:38.463Z,1005.23
2018-09-17T06:08:38.434Z,1005.24
2018-09-17T06:09:38.480Z,1005.19
2018-09-17T06:10:38.438Z,1005.19
2018-09-17T06:11:38.451Z,1005.17
2018-09-17T06:12:38.625Z,1005.20
2018-09-17T06:13:38.416Z,1005.20
2018-09-17T06:14:38.469Z,1005.16
2018-09-17T06:15:38.413Z,1005.18
2018-09-17T06:16:38.405Z,1005.18
2018-09-17T06:17:38.403Z,1005.18
2018-09-17T06:18:38.397Z,1005.17
2018-09-17T06:19:38.396Z,1005.18
2018-09-17T06:20:38.394Z,1005.15
2018-09-17T06:21:38.395Z,1005.17
2018-09-17T06:22:38.386Z,1005.12
2018-09-17T06:23:38.384Z,1005.13
2018-09-17T06:24:38.382Z,1005.14
2018-09-17T06:25:38.377Z,1005.12
2018-09-17T06:26:38.449Z,1005.08
2018-09-17T06:27:38.375Z,1005.09
2018-09-17T06:28:38.383Z,1005.10
2018-09-17T06:29:38.359Z,1005.11
2018-09-17T06:30:38.359Z,1005.14
2018-09-17T06:31:38.353Z,1005.16
2018-09-17T06:32:38.353Z,1005.18
2018-09-17T06:33:38.385Z,1005.17
2018-09-17T06:34:38.344Z,1005.20
2018-09-17T06:35:38.341Z,1005.17
2018-09-17T06:36:38.338Z,1005.12
2018-09-17T06:37:38.404Z,1005.13
2018-09-17T06:38:38.341Z,1005.14
2018-09-17T06:39:38.327Z,1005.13
2018-09-17T06:40:38.325Z,1005.15
2018-09-17T06:41:38.416Z,1005.11
2018-09-17T06:42:38.318Z,1005.14
2018-09-17T06:43:38.996Z,1005.13
2018-09-17T06:44:38.335Z,1005.14
2018-09-17T06:45:38.307Z,1005.16
2018-09-17T06:46:38.304Z,1005.18
2018-09-17T06:47:38.304Z,1005.17
2018-09-17T06:48:38.308Z,1005.19
2018-09-17T06:49:38.295Z,1005.18
2018-09-17T06:50:38.290Z,1005.19
2018-09-17T06:51:38.293Z,1005.19
2018-09-17T06:52:38.286Z,1005.20
2018-09-17T06:53:38.307Z,1005.21
2018-09-17T06:54:38.281Z,1005.21
2018-09-17T06:55:38.278Z,1005.23
2018-09-17T06:56:38.271Z,1005.25
2018-09-17T06:57:38.268Z,1005.26
2018-09-17T06:58:38.267Z,1005.24
2018-09-17T06:59:38.264Z,1005.23
2018-09-17T07:00:38.260Z,1005.25
2018-09-17T07:01:38.270Z,1005.24
2018-09-17T07:02:38.293Z,1005.27
2018-09-17T07:03:38.250Z,1005.24
2018-09-17T07:04:38.247Z,1005.22
2018-09-17T07:05:38.246Z,1005.27
2018-09-17T07:06:38.242Z,1005.25
2018-09-17T07:07:38.245Z,1005.27
2018-09-17T07:08:38.235Z,1005.24
2018-09-17T07:09:38.234Z,1005.22
2018-09-17T07:10:38.230Z,1005.22
2018-09-17T07:11:38.230Z,1005.22
2018-09-17T07:12:38.224Z,1005.19
2018-09-17T07:13:38.225Z,1005.18
2018-09-17T07:14:38.219Z,1005.22
2018-09-17T07:15:38.226Z,1005.23
2018-09-17T07:16:38.214Z,1005.20
2018-09-17T07:17:38.221Z,1005.19
2018-09-17T07:18:38.208Z,1005.23
2018-09-17T07:19:38.218Z,1005.24
2018-09-17T07:20:38.207Z,1005.20
2018-09-17T07:21:38.199Z,1005.20
2018-09-17T07:22:38.199Z,1005.19
2018-09-17T07:23:38.195Z,1005.18
2018-09-17T07:24:38.191Z,1005.09
2018-09-17T07:25:38.188Z,1005.08
2018-09-17T07:26:38.186Z,1005.06
2018-09-17T07:27:38.188Z,1005.09
2018-09-17T07:28:38.181Z,1005.07
2018-09-17T07:29:38.180Z,1005.05
2018-09-17T07:30:38.181Z,1005.10
2018-09-17T07:31:38.173Z,1005.11
2018-09-17T07:32:38.170Z,1005.13
2018-09-17T07:33:38.168Z,1005.15
2018-09-17T07:34:38.165Z,1005.12
2018-09-17T07:35:38.164Z,1005.08
2018-09-17T07:36:38.218Z,1005.08
2018-09-17T07:37:38.158Z,1005.02
2018-09-17T07:38:38.159Z,1005.08
2018-09-17T07:39:38.154Z,1005.03
2018-09-17T07:40:38.152Z,1004.99
2018-09-17T07:41:38.149Z,1004.98
2018-09-17T07:42:38.158Z,1005.02
2018-09-17T07:43:38.143Z,1004.97
2018-09-17T07:44:38.144Z,1004.98
2018-09-17T07:45:38.139Z,1004.98
2018-09-17T07:46:38.136Z,1004.95
2018-09-17T07:47:38.144Z,1004.92
2018-09-17T07:48:38.131Z,1004.91
2018-09-17T07:49:38.130Z,1004.93
2018-09-17T07:50:38.129Z,1004.93
2018-09-17T07:51:38.125Z,1004.91
2018-09-17T07:52:38.121Z,1004.92
2018-09-17T07:53:38.123Z,1004.95
2018-09-17T07:54:38.123Z,1004.94
2018-09-17T07:55:38.116Z,1004.94
2018-09-17T07:56:38.117Z,1004.93
2018-09-17T07:57:38.111Z,1004.97
2018-09-17T07:58:38.109Z,1004.91
2018-09-17T07:59:38.107Z,1004.89
2018-09-17T08:00:38.106Z,1004.88
2018-09-17T08:01:38.101Z,1004.85
2018-09-17T08:02:38.099Z,1004.83
2018-09-17T08:03:38.098Z,1004.80
2018-09-17T08:04:38.098Z,1004.79
2018-09-17T08:05:38.147Z,1004.79
2018-09-17T08:06:38.094Z,1004.78
2018-09-17T08:07:38.095Z,1004.78
2018-09-17T08:08:38.088Z,1004.80
2018-09-17T08:09:38.088Z,1004.76
2018-09-17T08:10:38.093Z,1004.74
2018-09-17T08:11:38.085Z,1004.79
2018-09-17T08:12:38.081Z,1004.76
2018-09-17T08:13:38.080Z,1004.80
2018-09-17T08:14:38.077Z,1004.79
2018-09-17T08:15:38.128Z,1004.79
2018-09-17T08:16:38.075Z,1004.79
2018-09-17T08:17:38.086Z,1004.76
2018-09-17T08:18:38.072Z,1004.74
2018-09-17T08:19:38.120Z,1004.72
2018-09-17T08:20:38.073Z,1004.73
2018-09-17T08:21:38.065Z,1004.68
2018-09-17T08:22:38.067Z,1004.72
2018-09-17T08:23:38.064Z,1004.66
2018-09-17T08:24:38.095Z,1004.62
2018-09-17T08:25:38.108Z,1004.59
2018-09-17T08:26:38.060Z,1004.57
2018-09-17T08:27:38.057Z,1004.56
2018-09-17T08:28:38.057Z,1004.57
2018-09-17T08:29:38.054Z,1004.56
2018-09-17T08:30:38.066Z,1004.56
2018-09-17T08:31:38.065Z,1004.54
2018-09-17T08:32:38.051Z,1004.57
2018-09-17T08:33:38.050Z,1004.51
2018-09-17T08:34:38.048Z,1004.52
2018-09-17T08:35:38.048Z,1004.51
2018-09-17T08:36:38.047Z,1004.48
2018-09-17T08:37:38.048Z,1004.46
2018-09-17T08:38:38.051Z,1004.47
2018-09-17T08:39:38.043Z,1004.49
2018-09-17T08:40:38.043Z,1004.48
2018-09-17T08:41:38.041Z,1004.50
2018-09-17T08:42:38.042Z,1004.48
2018-09-17T08:43:38.039Z,1004.46
2018-09-17T08:44:38.041Z,1004.44
2018-09-17T08:45:38.303Z,1004.46
2018-09-17T08:46:38.624Z,1004.49
2018-09-17T08:47:38.043Z,1004.51
2018-09-17T08:48:38.059Z,1004.51
2018-09-17T08:49:38.059Z,1004.54
2018-09-17T08:50:38.291Z,1004.49
2018-09-17T08:51:38.040Z,1004.49
2018-09-17T08:52:38.056Z,1004.50
2018-09-17T08:53:39.356Z,1004.49
2018-09-17T08:54:38.043Z,1004.47
2018-09-17T08:55:38.036Z,1004.50
2018-09-17T08:56:38.032Z,1004.49
2018-09-17T08:57:38.034Z,1004.52
2018-09-17T08:58:38.038Z,1004.52
2018-09-17T08:59:38.037Z,1004.52
2018-09-17T09:00:38.033Z,1004.50
2018-09-17T09:01:38.033Z,1004.55
2018-09-17T09:02:38.092Z,1004.59
2018-09-17T09:03:38.047Z,1004.60
2018-09-17T09:04:38.033Z,1004.55
2018-09-17T09:05:38.038Z,1004.59
2018-09-17T09:06:38.032Z,1004.53
2018-09-17T09:07:38.035Z,1004.57
2018-09-17T09:08:38.033Z,1004.59
2018-09-17T09:09:38.042Z,1004.51
2018-09-17T09:10:38.037Z,1004.51
2018-09-17T09:11:38.034Z,1004.46
2018-09-17T09:12:38.034Z,1004.47
2018-09-17T09:13:38.035Z,1004.46
2018-09-17T09:14:38.041Z,1004.44
2018-09-17T09:15:38.037Z,1004.43
2018-09-17T09:16:38.041Z,1004.42
2018-09-17T09:17:38.892Z,1004.43
2018-09-17T09:18:38.043Z,1004.43
2018-09-17T09:19:38.082Z,1004.43
2018-09-17T09:20:38.045Z,1004.39
2018-09-17T09:21:38.037Z,1004.36
2018-09-17T09:22:38.039Z,1004.37
2018-09-17T09:23:38.049Z,1004.34
2018-09-17T09:24:38.041Z,1004.35
2018-09-17T09:25:38.042Z,1004.33
2018-09-17T09:26:38.042Z,1004.32
2018-09-17T09:27:38.045Z,1004.29
2018-09-17T09:28:38.041Z,1004.31
2018-09-17T09:29:38.043Z,1004.32
2018-09-17T09:30:38.043Z,1004.32
2018-09-17T09:31:38.047Z,1004.32
2018-09-17T09:32:38.047Z,1004.28
2018-09-17T09:33:38.051Z,1004.28
2018-09-17T09:34:38.051Z,1004.28
2018-09-17T09:35:38.049Z,1004.26
2018-09-17T09:36:38.051Z,1004.26
2018-09-17T09:37:38.051Z,1004.26
2018-09-17T09:38:38.051Z,1004.27
2018-09-17T09:39:38.054Z,1004.23
2018-09-17T09:40:38.059Z,1004.20
2018-09-17T09:41:38.057Z,1004.21
2018-09-17T09:42:38.061Z,1004.22
2018-09-17T09:43:38.058Z,1004.21
2018-09-17T09:44:38.061Z,1004.19
2018-09-17T09:45:38.059Z,1004.21
2018-09-17T09:46:38.060Z,1004.24
2018-09-17T09:47:38.062Z,1004.24
2018-09-17T09:48:38.063Z,1004.26
2018-09-17T09:49:38.066Z,1004.25
2018-09-17T09:50:38.069Z,1004.25
2018-09-17T09:51:38.067Z,1004.23
2018-09-17T09:52:38.129Z,1004.25
2018-09-17T09:53:38.069Z,1004.26
2018-09-17T09:54:38.072Z,1004.26
2018-09-17T09:55:38.083Z,1004.25
2018-09-17T09:56:38.083Z,1004.21
2018-09-17T09:57:38.075Z,1004.25
2018-09-17T09:58:38.077Z,1004.21
2018-09-17T09:59:38.126Z,1004.19
2018-09-17T10:00:38.081Z,1004.17
2018-09-17T10:01:38.115Z,1004.21
2018-09-17T10:02:38.090Z,1004.15
2018-09-17T10:03:38.108Z,1004.14
2018-09-17T10:04:38.088Z,1004.14
2018-09-17T10:05:38.088Z,1004.14
2018-09-17T10:06:38.103Z,1004.12
2018-09-17T10:07:38.095Z,1004.09
2018-09-17T10:08:38.095Z,1004.11
2018-09-17T10:09:38.104Z,1004.10
2018-09-17T10:10:38.098Z,1004.08
2018-09-17T10:11:38.137Z,1004.06
2018-09-17T10:12:38.101Z,1004.06
2018-09-17T10:13:38.104Z,1004.04
2018-09-17T10:14:38.107Z,1004.04
2018-09-17T10:15:38.113Z,1004.04
2018-09-17T10:16:38.110Z,1004.01
2018-09-17T10:17:38.113Z,1004.01
2018-09-17T10:18:38.113Z,1003.96
2018-09-17T10:19:38.120Z,1003.98
2018-09-17T10:20:38.119Z,1003.98
2018-09-17T10:21:38.125Z,1003.98
2018-09-17T10:22:38.153Z,1004.01
2018-09-17T10:23:38.125Z,1003.97
2018-09-17T10:24:38.132Z,1003.97
2018-09-17T10:25:38.129Z,1004.00
2018-09-17T10:26:38.133Z,1003.94
2018-09-17T10:27:38.178Z,1003.93
2018-09-17T10:28:38.136Z,1003.92
2018-09-17T10:29:38.140Z,1003.93
2018-09-17T10:30:38.146Z,1003.94
2018-09-17T10:31:38.152Z,1003.89
2018-09-17T10:32:38.150Z,1003.86
2018-09-17T10:33:38.276Z,1003.87
2018-09-17T10:34:38.176Z,1003.85
2018-09-17T10:35:38.158Z,1003.86
2018-09-17T10:36:38.719Z,1003.83
2018-09-17T10:37:39.184Z,1003.79
2018-09-17T10:38:38.240Z,1003.80
2018-09-17T10:39:38.471Z,1003.80
2018-09-17T10:40:38.243Z,1003.80
2018-09-17T10:41:38.171Z,1003.75
2018-09-17T10:42:38.345Z,1003.72
2018-09-17T10:43:38.244Z,1003.71
2018-09-17T10:44:39.617Z,1003.72
2018-09-17T10:45:39.142Z,1003.70
2018-09-17T10:46:39.187Z,1003.67
2018-09-17T10:47:39.249Z,1003.64
2018-09-17T10:48:39.182Z,1003.61
2018-09-17T10:49:38.503Z,1003.59
2018-09-17T10:50:38.410Z,1003.58
2018-09-17T10:51:38.567Z,1003.57
2018-09-17T10:52:38.388Z,1003.56
2018-09-17T10:53:39.198Z,1003.52
2018-09-17T10:54:39.175Z,1003.54
2018-09-17T10:55:39.163Z,1003.49
2018-09-17T10:56:38.353Z,1003.50
2018-09-17T10:57:39.130Z,1003.49
2018-09-17T10:58:38.620Z,1003.47
2018-09-17T10:59:38.558Z,1003.45
2018-09-17T11:00:38.260Z,1003.45
2018-09-17T11:01:39.125Z,1003.44
2018-09-17T11:02:39.134Z,1003.39
2018-09-17T11:03:39.312Z,1003.38
2018-09-17T11:04:38.686Z,1003.39
2018-09-17T11:05:39.176Z,1003.35
2018-09-17T11:06:39.287Z,1003.32
2018-09-17T11:07:39.368Z,1003.30
2018-09-17T11:08:38.505Z,1003.30
2018-09-17T11:09:40.299Z,1003.24
2018-09-17T11:10:38.274Z,1003.29
2018-09-17T11:11:38.734Z,1003.26
2018-09-17T11:12:38.460Z,1003.29
2018-09-17T11:13:38.477Z,1003.30
2018-09-17T11:14:38.575Z,1003.31
2018-09-17T11:15:38.759Z,1003.31
2018-09-17T11:16:38.531Z,1003.33
2018-09-17T11:17:38.398Z,1003.33
2018-09-17T11:18:38.287Z,1003.36
2018-09-17T11:19:38.284Z,1003.35
2018-09-17T11:20:38.544Z,1003.30
2018-09-17T11:21:38.284Z,1003.33
2018-09-17T11:22:38.301Z,1003.31
2018-09-17T11:23:38.289Z,1003.31
2018-09-17T11:24:38.291Z,1003.30
2018-09-17T11:25:38.297Z,1003.28
2018-09-17T11:26:38.303Z,1003.30
2018-09-17T11:27:38.321Z,1003.29
2018-09-17T11:28:38.303Z,1003.29
2018-09-17T11:29:38.308Z,1003.25
2018-09-17T11:30:38.309Z,1003.29
2018-09-17T11:31:38.304Z,1003.28
2018-09-17T11:32:38.315Z,1003.25
2018-09-17T11:33:38.325Z,1003.24
2018-09-17T11:34:38.369Z,1003.24
2018-09-17T11:35:38.315Z,1003.22
2018-09-17T11:36:38.329Z,1003.17
2018-09-17T11:37:38.334Z,1003.16
2018-09-17T11:38:38.355Z,1003.16
2018-09-17T11:39:38.342Z,1003.12
2018-09-17T11:40:38.341Z,1003.13
2018-09-17T11:41:38.346Z,1003.13
2018-09-17T11:42:38.351Z,1003.10
2018-09-17T11:43:38.352Z,1003.13
2018-09-17T11:44:38.357Z,1003.09
2018-09-17T11:45:38.359Z,1003.06
2018-09-17T11:46:38.382Z,1003.06
2018-09-17T11:47:38.366Z,1003.06
2018-09-17T11:48:38.369Z,1003.04
2018-09-17T11:49:38.381Z,1003.04
2018-09-17T11:50:38.391Z,1003.06
2018-09-17T11:51:38.887Z,1003.05
2018-09-17T11:52:38.383Z,1003.05
2018-09-17T11:53:38.441Z,1003.00
2018-09-17T11:54:38.391Z,1003.04
2018-09-17T11:55:38.401Z,1003.02
2018-09-17T11:56:38.401Z,1003.00
2018-09-17T11:57:38.403Z,1002.93
2018-09-17T11:58:38.405Z,1002.88
2018-09-17T11:59:38.409Z,1002.87
2018-09-17T12:00:38.414Z,1002.79
2018-09-17T12:01:38.435Z,1002.87
2018-09-17T12:02:38.426Z,1002.85
2018-09-17T12:03:38.529Z,1002.82
2018-09-17T12:04:38.427Z,1002.79
2018-09-17T12:05:38.433Z,1002.75